PWSweather.com
Personal Weather Stations
Station Observations
ALLANTONFL
Allanton, Panama City, FL 32404

AllantonPanama City, FL 32404

Lat: 30.036, Lon: -85.48284060000003

Elevation: 11

Station Type: Acurite 5in1

Latest ConditionsUpdated 3:19:14 AM CST Thursday, Dec 12, 2019
Currently Today's Max Today's Min Today's Average
Temperature 50.9°F10.5°C 50.9°F10.5°C 49.5°F9.7°C 50.3°F10.2°C
Dew Point 45.3°F7.4°C 45.3°F7.4°C 41.5°F5.3°C 43.6°F6.4°C
Winds 4.2 mph ESE6.8 kmh ESE 9.9 mph -15.9 kmh - - 4.9 mph 7.9 kmh
Wind Gusts 8.3 mph13.4 kmh 9.9 mph15.9 kmh - -
Humidity 81% 81% 74% 78%
Pressure 30.32 in1026.8 mb 30.35 in1027.8 mb 30.31 in1026.4 mb -
Hour Temp Dew Point Humidity Winds Wind Gusts Pressure Precip Precip Rate Daily Precip Total
03:19 AM 50.9°F10.5°C 45.3°F7.4°C 81% 4.2 mph ESE6.8 kmh ESE 8.3 mph13.4 kmh 30.32 in1026.8 mb 0.00 in0.0 mm 0.00 in0.0 mm 0.00 in0.0 mm
03:18 AM 50.7°F10.4°C 45.1°F7.3°C 81% 4.2 mph WNW6.8 kmh WNW 9.9 mph15.9 kmh 30.32 in1026.8 mb 0.00 in0.0 mm 0.00 in0.0 mm 0.00 in0.0 mm
03:17 AM 50.7°F10.4°C 45.1°F7.3°C 81% 5.8 mph SE9.3 kmh SE 9.9 mph15.9 kmh 30.32 in1026.8 mb 0.00 in0.0 mm 0.00 in0.0 mm 0.00 in0.0 mm
03:16 AM 50.7°F10.4°C 45.1°F7.3°C 81% 8.3 mph E13.4 kmh E 9.9 mph15.9 kmh 30.32 in1026.8 mb 0.00 in0.0 mm 0.00 in0.0 mm 0.00 in0.0 mm
03:15 AM 50.7°F10.4°C 45.1°F7.3°C 81% 4.7 mph E7.6 kmh E 9.9 mph15.9 kmh 30.31 in1026.4 mb 0.00 in0.0 mm 0.00 in0.0 mm 0.00 in0.0 mm
03:14 AM 50.7°F10.4°C 45.1°F7.3°C 81% 3.7 mph NE6.0 kmh NE 9.9 mph15.9 kmh 30.31 in1026.4 mb 0.00 in0.0 mm 0.00 in0.0 mm 0.00 in0.0 mm
03:13 AM 50.7°F10.4°C 45.1°F7.3°C 81% 4.7 mph ENE7.6 kmh ENE 9.9 mph15.9 kmh 30.31 in1026.4 mb 0.00 in0.0 mm 0.00 in0.0 mm 0.00 in0.0 mm
03:12 AM 50.7°F10.4°C 45.1°F7.3°C 81% 6.3 mph NNE10.1 kmh NNE 9.9 mph15.9 kmh 30.31 in1026.4 mb 0.00 in0.0 mm 0.00 in0.0 mm 0.00 in0.0 mm
03:11 AM 50.7°F10.4°C 45.1°F7.3°C 81% 5.8 mph NNE9.3 kmh NNE 9.9 mph15.9 kmh 30.31 in1026.4 mb 0.00 in0.0 mm 0.00 in0.0 mm 0.00 in0.0 mm
03:10 AM 50.7°F10.4°C 45.1°F7.3°C 81% 4.7 mph ESE7.6 kmh ESE 9.9 mph15.9 kmh 30.31 in1026.4 mb 0.00 in0.0 mm 0.00 in0.0 mm 0.00 in0.0 mm
03:09 AM 50.7°F10.4°C 45.1°F7.3°C 81% 9.9 mph NNE15.9 kmh NNE 9.9 mph15.9 kmh 30.31 in1026.4 mb 0.00 in0.0 mm 0.00 in0.0 mm 0.00 in0.0 mm
03:08 AM 50.7°F10.4°C 45.1°F7.3°C 81% 7.3 mph NNE11.7 kmh NNE 8.9 mph14.3 kmh 30.31 in1026.4 mb 0.00 in0.0 mm 0.00 in0.0 mm 0.00 in0.0 mm
03:07 AM 50.7°F10.4°C 45.1°F7.3°C 81% 4.7 mph NE7.6 kmh NE 8.9 mph14.3 kmh 30.31 in1026.4 mb 0.00 in0.0 mm 0.00 in0.0 mm 0.00 in0.0 mm
03:06 AM 50.7°F10.4°C 45.1°F7.3°C 81% 8.9 mph E14.3 kmh E 8.9 mph14.3 kmh 30.31 in1026.4 mb 0.00 in0.0 mm 0.00 in0.0 mm 0.00 in0.0 mm
03:05 AM 50.7°F10.4°C 45.1°F7.3°C 81% 5.3 mph NNW8.5 kmh NNW 8.3 mph13.4 kmh 30.31 in1026.4 mb 0.00 in0.0 mm 0.00 in0.0 mm 0.00 in0.0 mm
03:04 AM 50.7°F10.4°C 45.1°F7.3°C 81% 5.8 mph ESE9.3 kmh ESE 8.3 mph13.4 kmh 30.31 in1026.4 mb 0.00 in0.0 mm 0.00 in0.0 mm 0.00 in0.0 mm
03:03 AM 50.7°F10.4°C 45.1°F7.3°C 81% 4.7 mph S7.6 kmh S 8.3 mph13.4 kmh 30.32 in1026.8 mb 0.00 in0.0 mm 0.00 in0.0 mm 0.00 in0.0 mm
03:02 AM 50.7°F10.4°C 45.1°F7.3°C 81% 4.7 mph ESE7.6 kmh ESE 8.3 mph13.4 kmh 30.32 in1026.8 mb 0.00 in0.0 mm 0.00 in0.0 mm 0.00 in0.0 mm
03:01 AM 50.7°F10.4°C 45.1°F7.3°C 81% 5.3 mph ESE8.5 kmh ESE 8.3 mph13.4 kmh 30.32 in1026.8 mb 0.00 in0.0 mm 0.00 in0.0 mm 0.00 in0.0 mm
03:00 AM 50.7°F10.4°C 45.1°F7.3°C 81% 6.8 mph ESE10.9 kmh ESE 8.3 mph13.4 kmh 30.32 in1026.8 mb 0.00 in0.0 mm 0.00 in0.0 mm 0.00 in0.0 mm
02:59 AM 50.7°F10.4°C 45.1°F7.3°C 81% 5.8 mph NNW9.3 kmh NNW 8.3 mph13.4 kmh 30.32 in1026.8 mb 0.00 in0.0 mm 0.00 in0.0 mm 0.00 in0.0 mm
02:58 AM 50.7°F10.4°C 45.1°F7.3°C 81% 6.3 mph ESE10.1 kmh ESE 8.3 mph13.4 kmh 30.32 in1026.8 mb 0.00 in0.0 mm 0.00 in0.0 mm 0.00 in0.0 mm
02:57 AM 50.7°F10.4°C 45.1°F7.3°C 81% 5.3 mph NNE8.5 kmh NNE 7.3 mph11.7 kmh 30.32 in1026.8 mb 0.00 in0.0 mm 0.00 in0.0 mm 0.00 in0.0 mm
02:56 AM 50.7°F10.4°C 45.1°F7.3°C 81% 6.8 mph E10.9 kmh E 7.3 mph11.7 kmh 30.32 in1026.8 mb 0.00 in0.0 mm 0.00 in0.0 mm 0.00 in0.0 mm
02:55 AM 50.7°F10.4°C 45.1°F7.3°C 81% 6.3 mph NNE10.1 kmh NNE 7.3 mph11.7 kmh 30.32 in1026.8 mb 0.00 in0.0 mm 0.00 in0.0 mm 0.00 in0.0 mm
02:54 AM 50.7°F10.4°C 45.1°F7.3°C 81% 3.7 mph E6.0 kmh E 7.8 mph12.6 kmh 30.32 in1026.8 mb 0.00 in0.0 mm 0.00 in0.0 mm 0.00 in0.0 mm
02:53 AM 50.7°F10.4°C 44.8°F7.1°C 80% 5.8 mph E9.3 kmh E 7.8 mph12.6 kmh 30.32 in1026.8 mb 0.00 in0.0 mm 0.00 in0.0 mm 0.00 in0.0 mm
02:52 AM 50.7°F10.4°C 44.8°F7.1°C 80% 5.3 mph NNE8.5 kmh NNE 7.8 mph12.6 kmh 30.32 in1026.8 mb 0.00 in0.0 mm 0.00 in0.0 mm 0.00 in0.0 mm
02:51 AM 50.7°F10.4°C 44.8°F7.1°C 80% 7.3 mph NE11.7 kmh NE 7.8 mph12.6 kmh 30.32 in1026.8 mb 0.00 in0.0 mm 0.00 in0.0 mm 0.00 in0.0 mm
02:50 AM 50.7°F10.4°C 44.8°F7.1°C 80% 7.3 mph ESE11.7 kmh ESE 7.8 mph12.6 kmh 30.32 in1026.8 mb 0.00 in0.0 mm 0.00 in0.0 mm 0.00 in0.0 mm
02:49 AM 50.7°F10.4°C 44.8°F7.1°C 80% 5.3 mph NNW8.5 kmh NNW 7.8 mph12.6 kmh 30.32 in1026.8 mb 0.00 in0.0 mm 0.00 in0.0 mm 0.00 in0.0 mm
02:48 AM 50.7°F10.4°C 44.8°F7.1°C 80% 4.7 mph ESE7.6 kmh ESE 7.8 mph12.6 kmh 30.32 in1026.8 mb 0.00 in0.0 mm 0.00 in0.0 mm 0.00 in0.0 mm
02:47 AM 50.7°F10.4°C 44.8°F7.1°C 80% 6.3 mph ENE10.1 kmh ENE 7.8 mph12.6 kmh 30.32 in1026.8 mb 0.00 in0.0 mm 0.00 in0.0 mm 0.00 in0.0 mm
02:46 AM 50.7°F10.4°C 44.8°F7.1°C 80% 6.3 mph ENE10.1 kmh ENE 7.8 mph12.6 kmh 30.32 in1026.8 mb 0.00 in0.0 mm 0.00 in0.0 mm 0.00 in0.0 mm
02:45 AM 50.7°F10.4°C 44.8°F7.1°C 80% 6.3 mph NE10.1 kmh NE 7.8 mph12.6 kmh 30.32 in1026.8 mb 0.00 in0.0 mm 0.00 in0.0 mm 0.00 in0.0 mm
02:44 AM 50.7°F10.4°C 44.8°F7.1°C 80% 5.3 mph NE8.5 kmh NE 7.8 mph12.6 kmh 30.32 in1026.8 mb 0.00 in0.0 mm 0.00 in0.0 mm 0.00 in0.0 mm
02:43 AM 50.7°F10.4°C 44.8°F7.1°C 80% 5.8 mph NE9.3 kmh NE 7.8 mph12.6 kmh 30.32 in1026.8 mb 0.00 in0.0 mm 0.00 in0.0 mm 0.00 in0.0 mm
02:42 AM 50.7°F10.4°C 44.8°F7.1°C 80% 3.7 mph E6.0 kmh E 7.8 mph12.6 kmh 30.32 in1026.8 mb 0.00 in0.0 mm 0.00 in0.0 mm 0.00 in0.0 mm
02:41 AM 50.7°F10.4°C 44.8°F7.1°C 80% 4.2 mph ENE6.8 kmh ENE 7.8 mph12.6 kmh 30.32 in1026.8 mb 0.00 in0.0 mm 0.00 in0.0 mm 0.00 in0.0 mm
02:40 AM 50.7°F10.4°C 44.8°F7.1°C 80% 4.2 mph NNE6.8 kmh NNE 7.8 mph12.6 kmh 30.32 in1026.8 mb 0.00 in0.0 mm 0.00 in0.0 mm 0.00 in0.0 mm
02:39 AM 50.7°F10.4°C 44.8°F7.1°C 80% 4.7 mph NNE7.6 kmh NNE 7.8 mph12.6 kmh 30.32 in1026.8 mb 0.00 in0.0 mm 0.00 in0.0 mm 0.00 in0.0 mm
02:38 AM 50.7°F10.4°C 44.8°F7.1°C 80% 4.2 mph ESE6.8 kmh ESE 8.3 mph13.4 kmh 30.33 in1027.1 mb 0.00 in0.0 mm 0.00 in0.0 mm 0.00 in0.0 mm
02:37 AM 50.7°F10.4°C 44.8°F7.1°C 80% 5.3 mph ESE8.5 kmh ESE 8.3 mph13.4 kmh 30.33 in1027.1 mb 0.00 in0.0 mm 0.00 in0.0 mm 0.00 in0.0 mm
02:36 AM 50.7°F10.4°C 44.8°F7.1°C 80% 6.8 mph E10.9 kmh E 8.3 mph13.4 kmh 30.33 in1027.1 mb 0.00 in0.0 mm 0.00 in0.0 mm 0.00 in0.0 mm
02:35 AM 50.7°F10.4°C 44.8°F7.1°C 80% 4.2 mph ESE6.8 kmh ESE 8.3 mph13.4 kmh 30.33 in1027.1 mb 0.00 in0.0 mm 0.00 in0.0 mm 0.00 in0.0 mm
02:34 AM 50.7°F10.4°C 44.8°F7.1°C 80% 6.8 mph SSE10.9 kmh SSE 8.3 mph13.4 kmh 30.33 in1027.1 mb 0.00 in0.0 mm 0.00 in0.0 mm 0.00 in0.0 mm
02:33 AM 50.7°F10.4°C 44.8°F7.1°C 80% 3.2 mph E5.1 kmh E 8.3 mph13.4 kmh 30.33 in1027.1 mb 0.00 in0.0 mm 0.00 in0.0 mm 0.00 in0.0 mm
02:32 AM 50.7°F10.4°C 44.8°F7.1°C 80% 5.8 mph NE9.3 kmh NE 8.3 mph13.4 kmh 30.33 in1027.1 mb 0.00 in0.0 mm 0.00 in0.0 mm 0.00 in0.0 mm
02:31 AM 50.7°F10.4°C 44.8°F7.1°C 80% 6.3 mph ESE10.1 kmh ESE 8.3 mph13.4 kmh 30.33 in1027.1 mb 0.00 in0.0 mm 0.00 in0.0 mm 0.00 in0.0 mm
02:30 AM 50.7°F10.4°C 44.8°F7.1°C 80% 5.3 mph ESE8.5 kmh ESE 8.3 mph13.4 kmh 30.33 in1027.1 mb 0.00 in0.0 mm 0.00 in0.0 mm 0.00 in0.0 mm
02:29 AM 50.7°F10.4°C 44.8°F7.1°C 80% 4.7 mph NE7.6 kmh NE 8.3 mph13.4 kmh 30.33 in1027.1 mb 0.00 in0.0 mm 0.00 in0.0 mm 0.00 in0.0 mm
02:28 AM 50.7°F10.4°C 44.8°F7.1°C 80% 5.8 mph NNE9.3 kmh NNE 7.3 mph11.7 kmh 30.33 in1027.1 mb 0.00 in0.0 mm 0.00 in0.0 mm 0.00 in0.0 mm
02:27 AM 50.7°F10.4°C 44.8°F7.1°C 80% 4.7 mph ESE7.6 kmh ESE 7.3 mph11.7 kmh 30.33 in1027.1 mb 0.00 in0.0 mm 0.00 in0.0 mm 0.00 in0.0 mm
02:26 AM 50.7°F10.4°C 44.4°F6.9°C 79% 7.3 mph ESE11.7 kmh ESE 7.3 mph11.7 kmh 30.33 in1027.1 mb 0.00 in0.0 mm 0.00 in0.0 mm 0.00 in0.0 mm
02:25 AM 50.7°F10.4°C 44.4°F6.9°C 79% 5.8 mph ESE9.3 kmh ESE 7.3 mph11.7 kmh 30.33 in1027.1 mb 0.00 in0.0 mm 0.00 in0.0 mm 0.00 in0.0 mm
02:24 AM 50.7°F10.4°C 44.4°F6.9°C 79% 4.7 mph NE7.6 kmh NE 6.8 mph10.9 kmh 30.33 in1027.1 mb 0.00 in0.0 mm 0.00 in0.0 mm 0.00 in0.0 mm
02:23 AM 50.7°F10.4°C 44.4°F6.9°C 79% 5.3 mph SE8.5 kmh SE 6.8 mph10.9 kmh 30.33 in1027.1 mb 0.00 in0.0 mm 0.00 in0.0 mm 0.00 in0.0 mm
02:22 AM 50.7°F10.4°C 44.4°F6.9°C 79% 5.3 mph NE8.5 kmh NE 6.3 mph10.1 kmh 30.33 in1027.1 mb 0.00 in0.0 mm 0.00 in0.0 mm 0.00 in0.0 mm
02:21 AM 50.7°F10.4°C 44.4°F6.9°C 79% 4.2 mph NE6.8 kmh NE 6.3 mph10.1 kmh 30.33 in1027.1 mb 0.00 in0.0 mm 0.00 in0.0 mm 0.00 in0.0 mm
02:20 AM 50.7°F10.4°C 44.4°F6.9°C 79% 6.3 mph E10.1 kmh E 6.3 mph10.1 kmh 30.33 in1027.1 mb 0.00 in0.0 mm 0.00 in0.0 mm 0.00 in0.0 mm
02:19 AM 50.7°F10.4°C 44.4°F6.9°C 79% 4.7 mph N7.6 kmh N 5.8 mph9.3 kmh 30.33 in1027.1 mb 0.00 in0.0 mm 0.00 in0.0 mm 0.00 in0.0 mm
02:18 AM 50.7°F10.4°C 44.4°F6.9°C 79% 3.7 mph E6.0 kmh E 5.8 mph9.3 kmh 30.33 in1027.1 mb 0.00 in0.0 mm 0.00 in0.0 mm 0.00 in0.0 mm
02:17 AM 50.7°F10.4°C 44.4°F6.9°C 79% 5.8 mph NE9.3 kmh NE 5.8 mph9.3 kmh 30.33 in1027.1 mb 0.00 in0.0 mm 0.00 in0.0 mm 0.00 in0.0 mm
02:16 AM 50.7°F10.4°C 44.4°F6.9°C 79% 5.3 mph N8.5 kmh N 5.8 mph9.3 kmh 30.33 in1027.1 mb 0.00 in0.0 mm 0.00 in0.0 mm 0.00 in0.0 mm
02:15 AM 50.7°F10.4°C 44.4°F6.9°C 79% 4.7 mph NNE7.6 kmh NNE 9.9 mph15.9 kmh 30.33 in1027.1 mb 0.00 in0.0 mm 0.00 in0.0 mm 0.00 in0.0 mm
02:14 AM 50.7°F10.4°C 44.4°F6.9°C 79% 3.2 mph NE5.1 kmh NE 9.9 mph15.9 kmh 30.33 in1027.1 mb 0.00 in0.0 mm 0.00 in0.0 mm 0.00 in0.0 mm
02:13 AM 50.7°F10.4°C 44.4°F6.9°C 79% 4.7 mph NNE7.6 kmh NNE 9.9 mph15.9 kmh 30.33 in1027.1 mb 0.00 in0.0 mm 0.00 in0.0 mm 0.00 in0.0 mm
02:12 AM 50.7°F10.4°C 44.4°F6.9°C 79% 5.3 mph ESE8.5 kmh ESE 9.9 mph15.9 kmh 30.33 in1027.1 mb 0.00 in0.0 mm 0.00 in0.0 mm 0.00 in0.0 mm
02:11 AM 50.7°F10.4°C 44.4°F6.9°C 79% 3.7 mph ESE6.0 kmh ESE 9.9 mph15.9 kmh 30.33 in1027.1 mb 0.00 in0.0 mm 0.00 in0.0 mm 0.00 in0.0 mm
02:10 AM 50.7°F10.4°C 44.4°F6.9°C 79% 3.2 mph E5.1 kmh E 9.9 mph15.9 kmh 30.33 in1027.1 mb 0.00 in0.0 mm 0.00 in0.0 mm 0.00 in0.0 mm
02:09 AM 50.7°F10.4°C 44.4°F6.9°C 79% 5.8 mph E9.3 kmh E 9.9 mph15.9 kmh 30.33 in1027.1 mb 0.00 in0.0 mm 0.00 in0.0 mm 0.00 in0.0 mm
02:08 AM 50.7°F10.4°C 44.4°F6.9°C 79% 3.7 mph NE6.0 kmh NE 9.9 mph15.9 kmh 30.33 in1027.1 mb 0.00 in0.0 mm 0.00 in0.0 mm 0.00 in0.0 mm
02:07 AM 50.7°F10.4°C 44.4°F6.9°C 79% 3.2 mph NE5.1 kmh NE 9.9 mph15.9 kmh 30.33 in1027.1 mb 0.00 in0.0 mm 0.00 in0.0 mm 0.00 in0.0 mm
02:06 AM 50.7°F10.4°C 44.4°F6.9°C 79% 5.8 mph NE9.3 kmh NE 9.9 mph15.9 kmh 30.33 in1027.1 mb 0.00 in0.0 mm 0.00 in0.0 mm 0.00 in0.0 mm
02:05 AM 50.7°F10.4°C 44.4°F6.9°C 79% 4.2 mph N6.8 kmh N 6.3 mph10.1 kmh 30.33 in1027.1 mb 0.00 in0.0 mm 0.00 in0.0 mm 0.00 in0.0 mm
02:04 AM 50.5°F10.3°C 44.3°F6.8°C 79% 3.2 mph NE5.1 kmh NE 6.3 mph10.1 kmh 30.33 in1027.1 mb 0.00 in0.0 mm 0.00 in0.0 mm 0.00 in0.0 mm
02:03 AM 50.5°F10.3°C 44.3°F6.8°C 79% 5.3 mph ESE8.5 kmh ESE 6.3 mph10.1 kmh 30.33 in1027.1 mb 0.00 in0.0 mm 0.00 in0.0 mm 0.00 in0.0 mm
02:02 AM 50.5°F10.3°C 44.3°F6.8°C 79% 4.7 mph ENE7.6 kmh ENE 6.3 mph10.1 kmh 30.33 in1027.1 mb 0.00 in0.0 mm 0.00 in0.0 mm 0.00 in0.0 mm
02:01 AM 50.5°F10.3°C 44.3°F6.8°C 79% 4.2 mph NE6.8 kmh NE 7.8 mph12.6 kmh 30.33 in1027.1 mb 0.00 in0.0 mm 0.00 in0.0 mm 0.00 in0.0 mm
02:00 AM 50.5°F10.3°C 44.3°F6.8°C 79% 5.3 mph E8.5 kmh E 7.8 mph12.6 kmh 30.33 in1027.1 mb 0.00 in0.0 mm 0.00 in0.0 mm 0.00 in0.0 mm
01:59 AM 50.5°F10.3°C 44.3°F6.8°C 79% 2.2 mph NE3.5 kmh NE 7.8 mph12.6 kmh 30.33 in1027.1 mb 0.00 in0.0 mm 0.00 in0.0 mm 0.00 in0.0 mm
01:58 AM 50.5°F10.3°C 44.3°F6.8°C 79% 4.7 mph ESE7.6 kmh ESE 7.8 mph12.6 kmh 30.33 in1027.1 mb 0.00 in0.0 mm 0.00 in0.0 mm 0.00 in0.0 mm
01:57 AM 50.5°F10.3°C 44.3°F6.8°C 79% 5.8 mph E9.3 kmh E 7.8 mph12.6 kmh 30.33 in1027.1 mb 0.00 in0.0 mm 0.00 in0.0 mm 0.00 in0.0 mm
01:56 AM 50.5°F10.3°C 44.3°F6.8°C 79% 6.3 mph NE10.1 kmh NE 7.8 mph12.6 kmh 30.33 in1027.1 mb 0.00 in0.0 mm 0.00 in0.0 mm 0.00 in0.0 mm
01:55 AM 50.5°F10.3°C 44.3°F6.8°C 79% 5.3 mph ESE8.5 kmh ESE 7.8 mph12.6 kmh 30.33 in1027.1 mb 0.00 in0.0 mm 0.00 in0.0 mm 0.00 in0.0 mm
01:54 AM 50.5°F10.3°C 44.3°F6.8°C 79% 4.2 mph ESE6.8 kmh ESE 7.8 mph12.6 kmh 30.33 in1027.1 mb 0.00 in0.0 mm 0.00 in0.0 mm 0.00 in0.0 mm
01:53 AM 50.5°F10.3°C 44.3°F6.8°C 79% 3.7 mph NNE6.0 kmh NNE 7.8 mph12.6 kmh 30.33 in1027.1 mb 0.00 in0.0 mm 0.00 in0.0 mm 0.00 in0.0 mm
01:52 AM 50.5°F10.3°C 44.3°F6.8°C 79% 5.3 mph ESE8.5 kmh ESE 7.8 mph12.6 kmh 30.33 in1027.1 mb 0.00 in0.0 mm 0.00 in0.0 mm 0.00 in0.0 mm
01:51 AM 50.5°F10.3°C 44.3°F6.8°C 79% 5.3 mph NNE8.5 kmh NNE 7.3 mph11.7 kmh 30.33 in1027.1 mb 0.00 in0.0 mm 0.00 in0.0 mm 0.00 in0.0 mm
01:50 AM 50.5°F10.3°C 44.3°F6.8°C 79% 4.7 mph E7.6 kmh E 7.3 mph11.7 kmh 30.33 in1027.1 mb 0.00 in0.0 mm 0.00 in0.0 mm 0.00 in0.0 mm
01:49 AM 50.5°F10.3°C 44.3°F6.8°C 79% 6.8 mph SE10.9 kmh SE 7.3 mph11.7 kmh 30.33 in1027.1 mb 0.00 in0.0 mm 0.00 in0.0 mm 0.00 in0.0 mm
01:48 AM 50.5°F10.3°C 44.3°F6.8°C 79% 4.7 mph NE7.6 kmh NE 7.3 mph11.7 kmh 30.33 in1027.1 mb 0.00 in0.0 mm 0.00 in0.0 mm 0.00 in0.0 mm
01:47 AM 50.5°F10.3°C 44.3°F6.8°C 79% 4.2 mph ESE6.8 kmh ESE 7.3 mph11.7 kmh 30.33 in1027.1 mb 0.00 in0.0 mm 0.00 in0.0 mm 0.00 in0.0 mm
01:46 AM 50.4°F10.2°C 44.1°F6.7°C 79% 4.7 mph ESE7.6 kmh ESE 7.3 mph11.7 kmh 30.33 in1027.1 mb 0.00 in0.0 mm 0.00 in0.0 mm 0.00 in0.0 mm
01:45 AM 50.4°F10.2°C 44.1°F6.7°C 79% 4.7 mph ESE7.6 kmh ESE 7.3 mph11.7 kmh 30.33 in1027.1 mb 0.00 in0.0 mm 0.00 in0.0 mm 0.00 in0.0 mm
01:44 AM 50.4°F10.2°C 44.1°F6.7°C 79% 4.7 mph ESE7.6 kmh ESE 7.3 mph11.7 kmh 30.33 in1027.1 mb 0.00 in0.0 mm 0.00 in0.0 mm 0.00 in0.0 mm
01:43 AM 50.4°F10.2°C 44.1°F6.7°C 79% 5.3 mph NNE8.5 kmh NNE 7.3 mph11.7 kmh 30.33 in1027.1 mb 0.00 in0.0 mm 0.00 in0.0 mm 0.00 in0.0 mm
01:42 AM 50.4°F10.2°C 44.1°F6.7°C 79% 4.7 mph ENE7.6 kmh ENE 7.3 mph11.7 kmh 30.33 in1027.1 mb 0.00 in0.0 mm 0.00 in0.0 mm 0.00 in0.0 mm
01:41 AM 50.4°F10.2°C 44.1°F6.7°C 79% 5.8 mph E9.3 kmh E 7.3 mph11.7 kmh 30.33 in1027.1 mb 0.00 in0.0 mm 0.00 in0.0 mm 0.00 in0.0 mm
01:40 AM 50.4°F10.2°C 44.1°F6.7°C 79% 7.3 mph NNE11.7 kmh NNE 7.3 mph11.7 kmh 30.33 in1027.1 mb 0.00 in0.0 mm 0.00 in0.0 mm 0.00 in0.0 mm
01:39 AM 50.2°F10.1°C 43.9°F6.6°C 79% 5.8 mph ESE9.3 kmh ESE 6.3 mph10.1 kmh 30.33 in1027.1 mb 0.00 in0.0 mm 0.00 in0.0 mm 0.00 in0.0 mm
01:38 AM 50.2°F10.1°C 43.9°F6.6°C 79% 3.7 mph NE6.0 kmh NE 6.3 mph10.1 kmh 30.33 in1027.1 mb 0.00 in0.0 mm 0.00 in0.0 mm 0.00 in0.0 mm
01:37 AM 50.2°F10.1°C 43.9°F6.6°C 79% 4.2 mph E6.8 kmh E 4.7 mph7.6 kmh 30.33 in1027.1 mb 0.00 in0.0 mm 0.00 in0.0 mm 0.00 in0.0 mm
01:36 AM 50.2°F10.1°C 43.9°F6.6°C 79% 3.2 mph ENE5.1 kmh ENE 5.3 mph8.5 kmh 30.33 in1027.1 mb 0.00 in0.0 mm 0.00 in0.0 mm 0.00 in0.0 mm
01:35 AM 50.2°F10.1°C 43.9°F6.6°C 79% 3.7 mph ESE6.0 kmh ESE 5.3 mph8.5 kmh 30.33 in1027.1 mb 0.00 in0.0 mm 0.00 in0.0 mm 0.00 in0.0 mm
01:34 AM 50.2°F10.1°C 43.9°F6.6°C 79% 3.2 mph NE5.1 kmh NE 5.3 mph8.5 kmh 30.33 in1027.1 mb 0.00 in0.0 mm 0.00 in0.0 mm 0.00 in0.0 mm
01:33 AM 50.0°F10.0°C 43.7°F6.5°C 79% 3.2 mph E5.1 kmh E 5.3 mph8.5 kmh 30.33 in1027.1 mb 0.00 in0.0 mm 0.00 in0.0 mm 0.00 in0.0 mm
01:32 AM 50.0°F10.0°C 43.4°F6.3°C 78% 2.7 mph ESE4.3 kmh ESE 5.3 mph8.5 kmh 30.33 in1027.1 mb 0.00 in0.0 mm 0.00 in0.0 mm 0.00 in0.0 mm
01:31 AM 50.0°F10.0°C 43.4°F6.3°C 78% 4.2 mph E6.8 kmh E 5.3 mph8.5 kmh 30.33 in1027.1 mb 0.00 in0.0 mm 0.00 in0.0 mm 0.00 in0.0 mm
01:30 AM 50.0°F10.0°C 43.4°F6.3°C 78% 4.7 mph ESE7.6 kmh ESE 5.8 mph9.3 kmh 30.33 in1027.1 mb 0.00 in0.0 mm 0.00 in0.0 mm 0.00 in0.0 mm
01:29 AM 50.0°F10.0°C 43.4°F6.3°C 78% 2.2 mph NNE3.5 kmh NNE 5.8 mph9.3 kmh 30.33 in1027.1 mb 0.00 in0.0 mm 0.00 in0.0 mm 0.00 in0.0 mm
01:28 AM 50.0°F10.0°C 43.4°F6.3°C 78% 2.7 mph NE4.3 kmh NE 5.8 mph9.3 kmh 30.33 in1027.1 mb 0.00 in0.0 mm 0.00 in0.0 mm 0.00 in0.0 mm
01:27 AM 50.0°F10.0°C 43.4°F6.3°C 78% 3.7 mph NE6.0 kmh NE 5.8 mph9.3 kmh 30.33 in1027.1 mb 0.00 in0.0 mm 0.00 in0.0 mm 0.00 in0.0 mm
01:26 AM 50.0°F10.0°C 43.4°F6.3°C 78% 3.2 mph E5.1 kmh E 7.3 mph11.7 kmh 30.33 in1027.1 mb 0.00 in0.0 mm 0.00 in0.0 mm 0.00 in0.0 mm
01:25 AM 50.0°F10.0°C 43.4°F6.3°C 78% 2.2 mph NE3.5 kmh NE 7.8 mph12.6 kmh 30.33 in1027.1 mb 0.00 in0.0 mm 0.00 in0.0 mm 0.00 in0.0 mm
01:24 AM 50.0°F10.0°C 43.4°F6.3°C 78% 3.7 mph NE6.0 kmh NE 7.8 mph12.6 kmh 30.33 in1027.1 mb 0.00 in0.0 mm 0.00 in0.0 mm 0.00 in0.0 mm
01:23 AM 50.0°F10.0°C 43.4°F6.3°C 78% 4.2 mph ESE6.8 kmh ESE 7.8 mph12.6 kmh 30.33 in1027.1 mb 0.00 in0.0 mm 0.00 in0.0 mm 0.00 in0.0 mm
01:22 AM 50.0°F10.0°C 43.4°F6.3°C 78% 3.7 mph ESE6.0 kmh ESE 7.8 mph12.6 kmh 30.33 in1027.1 mb 0.00 in0.0 mm 0.00 in0.0 mm 0.00 in0.0 mm
01:21 AM 50.0°F10.0°C 43.4°F6.3°C 78% 5.8 mph NE9.3 kmh NE 7.8 mph12.6 kmh 30.33 in1027.1 mb 0.00 in0.0 mm 0.00 in0.0 mm 0.00 in0.0 mm
01:20 AM 50.0°F10.0°C 43.4°F6.3°C 78% 2.7 mph SE4.3 kmh SE 7.8 mph12.6 kmh 30.33 in1027.1 mb 0.00 in0.0 mm 0.00 in0.0 mm 0.00 in0.0 mm
01:19 AM 50.0°F10.0°C 43.4°F6.3°C 78% 2.2 mph NNE3.5 kmh NNE 7.8 mph12.6 kmh 30.33 in1027.1 mb 0.00 in0.0 mm 0.00 in0.0 mm 0.00 in0.0 mm
01:18 AM 50.0°F10.0°C 43.4°F6.3°C 78% 5.3 mph E8.5 kmh E 7.8 mph12.6 kmh 30.33 in1027.1 mb 0.00 in0.0 mm 0.00 in0.0 mm 0.00 in0.0 mm
01:17 AM 50.0°F10.0°C 43.4°F6.3°C 78% 5.3 mph E8.5 kmh E 7.8 mph12.6 kmh 30.33 in1027.1 mb 0.00 in0.0 mm 0.00 in0.0 mm 0.00 in0.0 mm
01:16 AM 50.0°F10.0°C 43.4°F6.3°C 78% 7.8 mph E12.6 kmh E 7.8 mph12.6 kmh 30.33 in1027.1 mb 0.00 in0.0 mm 0.00 in0.0 mm 0.00 in0.0 mm
01:15 AM 50.0°F10.0°C 43.4°F6.3°C 78% 4.2 mph E6.8 kmh E 7.3 mph11.7 kmh 30.33 in1027.1 mb 0.00 in0.0 mm 0.00 in0.0 mm 0.00 in0.0 mm
01:14 AM 50.0°F10.0°C 43.4°F6.3°C 78% 7.3 mph NE11.7 kmh NE 7.3 mph11.7 kmh 30.33 in1027.1 mb 0.00 in0.0 mm 0.00 in0.0 mm 0.00 in0.0 mm
01:13 AM 50.0°F10.0°C 43.4°F6.3°C 78% 4.7 mph E7.6 kmh E 6.3 mph10.1 kmh 30.33 in1027.1 mb 0.00 in0.0 mm 0.00 in0.0 mm 0.00 in0.0 mm
01:12 AM 50.0°F10.0°C 43.1°F6.2°C 77% 2.2 mph ENE3.5 kmh ENE 6.3 mph10.1 kmh 30.33 in1027.1 mb 0.00 in0.0 mm 0.00 in0.0 mm 0.00 in0.0 mm
01:11 AM 50.0°F10.0°C 43.1°F6.2°C 77% 5.8 mph E9.3 kmh E 6.3 mph10.1 kmh 30.33 in1027.1 mb 0.00 in0.0 mm 0.00 in0.0 mm 0.00 in0.0 mm
01:10 AM 50.0°F10.0°C 43.1°F6.2°C 77% 4.7 mph NE7.6 kmh NE 6.3 mph10.1 kmh 30.33 in1027.1 mb 0.00 in0.0 mm 0.00 in0.0 mm 0.00 in0.0 mm
01:09 AM 50.0°F10.0°C 43.1°F6.2°C 77% 6.3 mph E10.1 kmh E 6.3 mph10.1 kmh 30.33 in1027.1 mb 0.00 in0.0 mm 0.00 in0.0 mm 0.00 in0.0 mm
01:08 AM 50.0°F10.0°C 43.1°F6.2°C 77% 5.3 mph ESE8.5 kmh ESE 6.3 mph10.1 kmh 30.33 in1027.1 mb 0.00 in0.0 mm 0.00 in0.0 mm 0.00 in0.0 mm
01:07 AM 50.0°F10.0°C 43.1°F6.2°C 77% 3.7 mph ENE6.0 kmh ENE 6.3 mph10.1 kmh 30.33 in1027.1 mb 0.00 in0.0 mm 0.00 in0.0 mm 0.00 in0.0 mm
01:06 AM 50.0°F10.0°C 43.1°F6.2°C 77% 3.2 mph ENE5.1 kmh ENE 6.3 mph10.1 kmh 30.33 in1027.1 mb 0.00 in0.0 mm 0.00 in0.0 mm 0.00 in0.0 mm
01:05 AM 50.0°F10.0°C 43.1°F6.2°C 77% 3.7 mph ESE6.0 kmh ESE 6.3 mph10.1 kmh 30.33 in1027.1 mb 0.00 in0.0 mm 0.00 in0.0 mm 0.00 in0.0 mm
01:04 AM 50.0°F10.0°C 43.1°F6.2°C 77% 6.3 mph ESE10.1 kmh ESE 8.3 mph13.4 kmh 30.33 in1027.1 mb 0.00 in0.0 mm 0.00 in0.0 mm 0.00 in0.0 mm
01:03 AM 50.0°F10.0°C 43.1°F6.2°C 77% 3.7 mph E6.0 kmh E 8.3 mph13.4 kmh 30.33 in1027.1 mb 0.00 in0.0 mm 0.00 in0.0 mm 0.00 in0.0 mm
01:02 AM 50.0°F10.0°C 43.1°F6.2°C 77% 3.7 mph E6.0 kmh E 8.3 mph13.4 kmh 30.33 in1027.1 mb 0.00 in0.0 mm 0.00 in0.0 mm 0.00 in0.0 mm
01:01 AM 50.0°F10.0°C 43.1°F6.2°C 77% 5.8 mph ESE9.3 kmh ESE 8.3 mph13.4 kmh 30.33 in1027.1 mb 0.00 in0.0 mm 0.00 in0.0 mm 0.00 in0.0 mm
01:00 AM 50.0°F10.0°C 43.1°F6.2°C 77% 3.7 mph N6.0 kmh N 8.3 mph13.4 kmh 30.33 in1027.1 mb 0.00 in0.0 mm 0.00 in0.0 mm 0.00 in0.0 mm
12:59 AM 50.0°F10.0°C 43.1°F6.2°C 77% 3.7 mph E6.0 kmh E 8.3 mph13.4 kmh 30.33 in1027.1 mb 0.00 in0.0 mm 0.00 in0.0 mm 0.00 in0.0 mm
12:58 AM 50.0°F10.0°C 42.7°F5.9°C 76% 4.7 mph E7.6 kmh E 8.3 mph13.4 kmh 30.33 in1027.1 mb 0.00 in0.0 mm 0.00 in0.0 mm 0.00 in0.0 mm
12:57 AM 50.0°F10.0°C 42.7°F5.9°C 76% 5.3 mph NNE8.5 kmh NNE 8.3 mph13.4 kmh 30.33 in1027.1 mb 0.00 in0.0 mm 0.00 in0.0 mm 0.00 in0.0 mm
12:56 AM 50.0°F10.0°C 42.7°F5.9°C 76% 4.2 mph ESE6.8 kmh ESE 8.3 mph13.4 kmh 30.33 in1027.1 mb 0.00 in0.0 mm 0.00 in0.0 mm 0.00 in0.0 mm
12:55 AM 50.0°F10.0°C 42.7°F5.9°C 76% 5.8 mph ENE9.3 kmh ENE 8.3 mph13.4 kmh 30.33 in1027.1 mb 0.00 in0.0 mm 0.00 in0.0 mm 0.00 in0.0 mm
12:54 AM 50.0°F10.0°C 42.7°F5.9°C 76% 3.7 mph E6.0 kmh E 7.8 mph12.6 kmh 30.33 in1027.1 mb 0.00 in0.0 mm 0.00 in0.0 mm 0.00 in0.0 mm
12:53 AM 50.0°F10.0°C 42.7°F5.9°C 76% 2.2 mph ESE3.5 kmh ESE 7.8 mph12.6 kmh 30.33 in1027.1 mb 0.00 in0.0 mm 0.00 in0.0 mm 0.00 in0.0 mm
12:52 AM 50.0°F10.0°C 42.7°F5.9°C 76% 5.3 mph NE8.5 kmh NE 7.8 mph12.6 kmh 30.33 in1027.1 mb 0.00 in0.0 mm 0.00 in0.0 mm 0.00 in0.0 mm
12:48 AM 50.0°F10.0°C 42.4°F5.8°C 75% 5.3 mph NE8.5 kmh NE 7.3 mph11.7 kmh 30.34 in1027.4 mb 0.00 in0.0 mm 0.00 in0.0 mm 0.00 in0.0 mm
12:47 AM 50.0°F10.0°C 42.4°F5.8°C 75% 3.7 mph ENE6.0 kmh ENE 7.3 mph11.7 kmh 30.34 in1027.4 mb 0.00 in0.0 mm 0.00 in0.0 mm 0.00 in0.0 mm
12:46 AM 50.0°F10.0°C 42.4°F5.8°C 75% 3.7 mph NNE6.0 kmh NNE 7.3 mph11.7 kmh 30.34 in1027.4 mb 0.00 in0.0 mm 0.00 in0.0 mm 0.00 in0.0 mm
12:45 AM 50.0°F10.0°C 42.4°F5.8°C 75% 3.7 mph NE6.0 kmh NE 7.3 mph11.7 kmh 30.34 in1027.4 mb 0.00 in0.0 mm 0.00 in0.0 mm 0.00 in0.0 mm
12:44 AM 50.0°F10.0°C 42.4°F5.8°C 75% 5.8 mph NE9.3 kmh NE 7.3 mph11.7 kmh 30.34 in1027.4 mb 0.00 in0.0 mm 0.00 in0.0 mm 0.00 in0.0 mm
12:43 AM 50.0°F10.0°C 42.4°F5.8°C 75% 5.3 mph E8.5 kmh E 7.3 mph11.7 kmh 30.34 in1027.4 mb 0.00 in0.0 mm 0.00 in0.0 mm 0.00 in0.0 mm
12:42 AM 49.8°F9.9°C 42.2°F5.7°C 75% 7.3 mph ENE11.7 kmh ENE 7.3 mph11.7 kmh 30.34 in1027.4 mb 0.00 in0.0 mm 0.00 in0.0 mm 0.00 in0.0 mm
12:41 AM 49.8°F9.9°C 42.2°F5.7°C 75% 5.3 mph NE8.5 kmh NE 7.3 mph11.7 kmh 30.34 in1027.4 mb 0.00 in0.0 mm 0.00 in0.0 mm 0.00 in0.0 mm
12:40 AM 49.8°F9.9°C 42.2°F5.7°C 75% 4.7 mph NNE7.6 kmh NNE 7.3 mph11.7 kmh 30.34 in1027.4 mb 0.00 in0.0 mm 0.00 in0.0 mm 0.00 in0.0 mm
12:39 AM 49.8°F9.9°C 42.2°F5.7°C 75% 5.8 mph NNE9.3 kmh NNE 7.3 mph11.7 kmh 30.34 in1027.4 mb 0.00 in0.0 mm 0.00 in0.0 mm 0.00 in0.0 mm
12:38 AM 49.8°F9.9°C 42.2°F5.7°C 75% 3.7 mph NE6.0 kmh NE 7.3 mph11.7 kmh 30.34 in1027.4 mb 0.00 in0.0 mm 0.00 in0.0 mm 0.00 in0.0 mm
12:37 AM 49.8°F9.9°C 42.2°F5.7°C 75% 4.2 mph NE6.8 kmh NE 7.3 mph11.7 kmh 30.34 in1027.4 mb 0.00 in0.0 mm 0.00 in0.0 mm 0.00 in0.0 mm
12:36 AM 49.8°F9.9°C 42.2°F5.7°C 75% 3.7 mph ESE6.0 kmh ESE 8.3 mph13.4 kmh 30.34 in1027.4 mb 0.00 in0.0 mm 0.00 in0.0 mm 0.00 in0.0 mm
12:35 AM 49.8°F9.9°C 42.2°F5.7°C 75% 3.2 mph ENE5.1 kmh ENE 8.3 mph13.4 kmh 30.34 in1027.4 mb 0.00 in0.0 mm 0.00 in0.0 mm 0.00 in0.0 mm
12:34 AM 49.8°F9.9°C 42.2°F5.7°C 75% 4.2 mph ENE6.8 kmh ENE 8.3 mph13.4 kmh 30.34 in1027.4 mb 0.00 in0.0 mm 0.00 in0.0 mm 0.00 in0.0 mm
12:33 AM 49.8°F9.9°C 42.2°F5.7°C 75% 4.2 mph SE6.8 kmh SE 8.3 mph13.4 kmh 30.34 in1027.4 mb 0.00 in0.0 mm 0.00 in0.0 mm 0.00 in0.0 mm
12:32 AM 49.8°F9.9°C 42.2°F5.7°C 75% 5.8 mph NNE9.3 kmh NNE 8.3 mph13.4 kmh 30.34 in1027.4 mb 0.00 in0.0 mm 0.00 in0.0 mm 0.00 in0.0 mm
12:31 AM 49.8°F9.9°C 42.2°F5.7°C 75% 3.2 mph NNE5.1 kmh NNE 8.3 mph13.4 kmh 30.34 in1027.4 mb 0.00 in0.0 mm 0.00 in0.0 mm 0.00 in0.0 mm
12:30 AM 49.8°F9.9°C 42.2°F5.7°C 75% 6.3 mph ESE10.1 kmh ESE 8.3 mph13.4 kmh 30.34 in1027.4 mb 0.00 in0.0 mm 0.00 in0.0 mm 0.00 in0.0 mm
12:29 AM 49.8°F9.9°C 42.2°F5.7°C 75% 3.7 mph N6.0 kmh N 8.3 mph13.4 kmh 30.34 in1027.4 mb 0.00 in0.0 mm 0.00 in0.0 mm 0.00 in0.0 mm
12:28 AM 49.8°F9.9°C 41.9°F5.5°C 74% 3.7 mph ESE6.0 kmh ESE 8.3 mph13.4 kmh 30.34 in1027.4 mb 0.00 in0.0 mm 0.00 in0.0 mm 0.00 in0.0 mm
12:27 AM 49.8°F9.9°C 41.9°F5.5°C 74% 6.8 mph NNE10.9 kmh NNE 8.3 mph13.4 kmh 30.34 in1027.4 mb 0.00 in0.0 mm 0.00 in0.0 mm 0.00 in0.0 mm
12:26 AM 49.8°F9.9°C 41.9°F5.5°C 74% 4.2 mph NE6.8 kmh NE 7.8 mph12.6 kmh 30.34 in1027.4 mb 0.00 in0.0 mm 0.00 in0.0 mm 0.00 in0.0 mm
12:25 AM 49.8°F9.9°C 41.9°F5.5°C 74% 6.3 mph ESE10.1 kmh ESE 7.3 mph11.7 kmh 30.34 in1027.4 mb 0.00 in0.0 mm 0.00 in0.0 mm 0.00 in0.0 mm
12:24 AM 49.6°F9.8°C 41.7°F5.4°C 74% 3.7 mph ENE6.0 kmh ENE 7.3 mph11.7 kmh 30.34 in1027.4 mb 0.00 in0.0 mm 0.00 in0.0 mm 0.00 in0.0 mm
12:23 AM 49.6°F9.8°C 41.7°F5.4°C 74% 5.8 mph NNE9.3 kmh NNE 7.3 mph11.7 kmh 30.34 in1027.4 mb 0.00 in0.0 mm 0.00 in0.0 mm 0.00 in0.0 mm
12:22 AM 49.6°F9.8°C 41.7°F5.4°C 74% 4.7 mph NE7.6 kmh NE 7.3 mph11.7 kmh 30.34 in1027.4 mb 0.00 in0.0 mm 0.00 in0.0 mm 0.00 in0.0 mm
12:21 AM 49.6°F9.8°C 41.7°F5.4°C 74% 4.7 mph NNW7.6 kmh NNW 7.3 mph11.7 kmh 30.34 in1027.4 mb 0.00 in0.0 mm 0.00 in0.0 mm 0.00 in0.0 mm
12:20 AM 49.6°F9.8°C 41.7°F5.4°C 74% 4.2 mph ENE6.8 kmh ENE 7.3 mph11.7 kmh 30.34 in1027.4 mb 0.00 in0.0 mm 0.00 in0.0 mm 0.00 in0.0 mm
12:19 AM 49.6°F9.8°C 41.7°F5.4°C 74% 7.3 mph E11.7 kmh E 7.3 mph11.7 kmh 30.34 in1027.4 mb 0.00 in0.0 mm 0.00 in0.0 mm 0.00 in0.0 mm
12:18 AM 49.6°F9.8°C 41.7°F5.4°C 74% 3.7 mph ESE6.0 kmh ESE 6.8 mph10.9 kmh 30.34 in1027.4 mb 0.00 in0.0 mm 0.00 in0.0 mm 0.00 in0.0 mm
12:17 AM 49.6°F9.8°C 41.7°F5.4°C 74% 3.7 mph E6.0 kmh E 6.8 mph10.9 kmh 30.34 in1027.4 mb 0.00 in0.0 mm 0.00 in0.0 mm 0.00 in0.0 mm
12:16 AM 49.6°F9.8°C 41.7°F5.4°C 74% 4.7 mph NNE7.6 kmh NNE 6.8 mph10.9 kmh 30.34 in1027.4 mb 0.00 in0.0 mm 0.00 in0.0 mm 0.00 in0.0 mm
12:15 AM 49.6°F9.8°C 41.7°F5.4°C 74% 4.7 mph NNE7.6 kmh NNE 6.8 mph10.9 kmh 30.34 in1027.4 mb 0.00 in0.0 mm 0.00 in0.0 mm 0.00 in0.0 mm
12:14 AM 49.6°F9.8°C 41.7°F5.4°C 74% 5.3 mph NE8.5 kmh NE 6.8 mph10.9 kmh 30.34 in1027.4 mb 0.00 in0.0 mm 0.00 in0.0 mm 0.00 in0.0 mm
12:13 AM 49.6°F9.8°C 41.7°F5.4°C 74% 4.2 mph NE6.8 kmh NE 6.8 mph10.9 kmh 30.34 in1027.4 mb 0.00 in0.0 mm 0.00 in0.0 mm 0.00 in0.0 mm
12:12 AM 49.6°F9.8°C 41.7°F5.4°C 74% 5.3 mph NE8.5 kmh NE 9.4 mph15.1 kmh 30.34 in1027.4 mb 0.00 in0.0 mm 0.00 in0.0 mm 0.00 in0.0 mm
12:11 AM 49.6°F9.8°C 41.7°F5.4°C 74% 2.7 mph E4.3 kmh E 9.4 mph15.1 kmh 30.34 in1027.4 mb 0.00 in0.0 mm 0.00 in0.0 mm 0.00 in0.0 mm
12:10 AM 49.6°F9.8°C 41.7°F5.4°C 74% 4.2 mph SE6.8 kmh SE 9.4 mph15.1 kmh 30.34 in1027.4 mb 0.00 in0.0 mm 0.00 in0.0 mm 0.00 in0.0 mm
12:09 AM 49.6°F9.8°C 41.7°F5.4°C 74% 3.7 mph NNE6.0 kmh NNE 9.4 mph15.1 kmh 30.34 in1027.4 mb 0.00 in0.0 mm 0.00 in0.0 mm 0.00 in0.0 mm
12:08 AM 49.6°F9.8°C 41.7°F5.4°C 74% 4.2 mph NNE6.8 kmh NNE 9.4 mph15.1 kmh 30.34 in1027.4 mb 0.00 in0.0 mm 0.00 in0.0 mm 0.00 in0.0 mm
12:07 AM 49.6°F9.8°C 41.7°F5.4°C 74% 3.7 mph ESE6.0 kmh ESE 9.4 mph15.1 kmh 30.34 in1027.4 mb 0.00 in0.0 mm 0.00 in0.0 mm 0.00 in0.0 mm
12:06 AM 49.6°F9.8°C 41.7°F5.4°C 74% 5.8 mph NNE9.3 kmh NNE 9.4 mph15.1 kmh 30.34 in1027.4 mb 0.00 in0.0 mm 0.00 in0.0 mm 0.00 in0.0 mm
12:05 AM 49.6°F9.8°C 41.7°F5.4°C 74% 5.8 mph ESE9.3 kmh ESE 9.4 mph15.1 kmh 30.34 in1027.4 mb 0.00 in0.0 mm 0.00 in0.0 mm 0.00 in0.0 mm
12:04 AM 49.5°F9.7°C 41.5°F5.3°C 74% 6.3 mph E10.1 kmh E 9.4 mph15.1 kmh 30.34 in1027.4 mb 0.00 in0.0 mm 0.00 in0.0 mm 0.00 in0.0 mm
12:03 AM 49.5°F9.7°C 41.5°F5.3°C 74% 7.3 mph ENE11.7 kmh ENE 9.4 mph15.1 kmh 30.35 in1027.8 mb 0.00 in0.0 mm 0.00 in0.0 mm 0.00 in0.0 mm
12:02 AM 49.5°F9.7°C 41.5°F5.3°C 74% 4.2 mph NE6.8 kmh NE 7.3 mph11.7 kmh 30.35 in1027.8 mb 0.00 in0.0 mm 0.00 in0.0 mm 0.00 in0.0 mm
12:01 AM 49.5°F9.7°C 41.5°F5.3°C 74% 4.2 mph NNE6.8 kmh NNE 7.3 mph11.7 kmh 30.35 in1027.8 mb 0.00 in0.0 mm 0.00 in0.0 mm 0.00 in0.0 mm
12:00 AM 49.5°F9.7°C 41.5°F5.3°C 74% 3.7 mph NNE6.0 kmh NNE 7.3 mph11.7 kmh 30.35 in1027.8 mb 0.00 in0.0 mm 0.00 in0.0 mm 0.00 in0.0 mm